KBCT/BCT METAR and TAF weather

Enter ICAO airport designator
Station Type Date Time Source
KBCT METAR 2021/09/23 17:47 UTC NOAA

KBCT 231747Z 14005KT 10SM SCT040 32/25 A2989


Station Type Date Time Source
KBCT Decoded METAR 2021/09/23 17:47 UTC NOAA

Boca Raton, Boca Raton Airport, FL, United States (KBCT) 26-22-43N 080-06-28W
Sep 23, 2021 - 01:47 PM EDT / 2021.09.23 1747 UTC
Wind: from the SE (140 degrees) at 6 MPH (5 KT):0
Visibility: 10 mile(s):0
Sky conditions: partly cloudy
Temperature: 89 F (32 C)
Heat index: 100.6 F (38.1 C):1
Dew Point: 77 F (25 C)
Relative Humidity: 66%
Pressure (altimeter): 29.89 in. Hg (1012 hPa)
ob: KBCT 231747Z 14005KT 10SM SCT040 32/25 A2989
cycle: 18

Station Type Date Time Source
KBCT TAF 2020/02/03 18:20 UTC NOAA

TAF KBCT 031720Z 0318/0418 12005KT P6SM SKC
FM040000 VRB03KT P6SM SKC
FM041400 16011KT P6SM FEW030

Example: see airport list